Time;durP1;ratioP1;P1;durP2;ratioP2;P2;SDS_P1;SDS_P2;PMS_P1;PMS_P2;Temp;Humidity;BMP_temperature;BMP_pressure;BME280_temperature;BME280_humidity;BME280_pressure;Samples;Min_cycle;Max_cycle;Signal;HPM_P1;HPM_P2
2023/08/07 00:00:02;;;;;;;;;;;;;;;23.59;55.42;99897.78;7396483;19;1477;-46
2023/08/07 00:02:30;;;;;;;;;;;;;;;23.55;55.58;99900.00;7396402;19;1131;-45
2023/08/07 00:04:59;;;;;;;;;;;;;;;23.59;55.37;99911.25;7395297;19;1605;-47
2023/08/07 00:07:30;;;;;;;;;;;;;;;23.47;55.57;99902.78;7395318;19;1192;-47
2023/08/07 00:10:00;;;;;;;;;;;;;;;23.49;55.55;99916.09;7394973;19;1434;-46
2023/08/07 00:12:28;;;;;;;;;;;;;;;23.50;55.53;99915.09;7395362;19;1491;-46
2023/08/07 00:14:57;;;;;;;;;;;;;;;23.50;55.63;99910.53;7395016;19;1552;-46
2023/08/07 00:17:25;;;;;;;;;;;;;;;23.51;55.56;99905.97;7394132;19;1838;-47
2023/08/07 00:19:53;;;;;;;;;;;;;;;23.45;55.51;99910.25;7394091;19;1225;-46
2023/08/07 00:22:21;;;;;;;;;;;;;;;23.43;55.44;99910.41;7396494;19;1241;-45
2023/08/07 00:24:52;;;;;;;;;;;;;;;23.47;55.59;99920.84;7395322;19;1532;-46
2023/08/07 00:27:20;;;;;;;;;;;;;;;23.39;55.41;99910.97;7395047;19;1690;-46
2023/08/07 00:29:49;;;;;;;;;;;;;;;23.43;55.27;99910.41;7393635;19;1288;-46
2023/08/07 00:32:17;;;;;;;;;;;;;;;23.42;55.22;99914.16;7393810;19;1547;-45
2023/08/07 00:34:46;;;;;;;;;;;;;;;23.37;55.22;99913.84;7394889;19;1201;-46
2023/08/07 00:37:14;;;;;;;;;;;;;;;23.35;55.40;99929.41;7394519;19;1863;-46
2023/08/07 00:39:42;;;;;;;;;;;;;;;23.35;55.26;99913.22;7392272;19;1194;-46
2023/08/07 00:42:13;;;;;;;;;;;;;;;23.36;55.26;99909.50;7394611;19;1608;-46
2023/08/07 00:44:41;;;;;;;;;;;;;;;23.41;55.18;99923.25;7400291;19;1149;-46
2023/08/07 00:47:10;;;;;;;;;;;;;;;23.39;55.12;99925.31;7402022;19;1572;-46
2023/08/07 00:49:38;;;;;;;;;;;;;;;23.32;55.24;99934.34;7402558;19;1198;-46
2023/08/07 00:52:07;;;;;;;;;;;;;;;23.29;55.48;99922.03;7402003;19;1842;-46
2023/08/07 00:54:35;;;;;;;;;;;;;;;23.23;55.37;99926.31;7401515;19;1549;-46
2023/08/07 00:57:10;;;;;;;;;;;;;;;23.28;55.20;99928.47;7401350;19;1859;-46
2023/08/07 00:59:41;;;;;;;;;;;;;;;23.33;55.09;99944.09;7401834;19;1666;-46
2023/08/07 01:02:10;;;;;;;;;;;;;;;23.29;55.14;99932.00;7401949;19;1818;-46
2023/08/07 01:04:38;;;;;;;;;;;;;;;23.30;55.43;99942.63;7401471;19;1482;-46
2023/08/07 01:07:07;;;;;;;;;;;;;;;23.33;55.10;99944.09;7400748;19;1427;-46
2023/08/07 01:09:35;;;;;;;;;;;;;;;23.31;55.12;99948.84;7400576;19;1469;-46
2023/08/07 01:12:09;;;;;;;;;;;;;;;23.27;55.06;99958.31;7400151;19;1337;-45
2023/08/07 01:14:49;;;;;;;;;;;;;;;23.27;55.05;99952.94;7399556;19;1406;-46
2023/08/07 01:17:18;;;;;;;;;;;;;;;23.25;55.17;99969.28;7399394;19;1846;-46
2023/08/07 01:19:47;;;;;;;;;;;;;;;23.23;55.58;99972.16;7401526;19;1741;-46
2023/08/07 01:22:19;;;;;;;;;;;;;;;23.37;56.55;99969.69;7400338;19;1580;-45
2023/08/07 01:24:47;;;;;;;;;;;;;;;23.49;57.11;99972.78;7401560;19;1178;-46
2023/08/07 01:27:22;;;;;;;;;;;;;;;23.51;57.39;99981.53;7401314;19;1509;-46
2023/08/07 01:29:54;;;;;;;;;;;;;;;23.60;57.65;99980.44;7400210;19;1178;-46
2023/08/07 01:32:27;;;;;;;;;;;;;;;23.69;58.13;99976.59;7399263;19;1473;-45
2023/08/07 01:34:56;;;;;;;;;;;;;;;23.70;58.51;99983.69;7399645;19;1563;-46
2023/08/07 01:37:28;;;;;;;;;;;;;;;23.73;58.91;99982.47;7400038;19;1841;-46
2023/08/07 01:39:57;;;;;;;;;;;;;;;23.70;58.92;99991.78;7400618;19;1134;-46
2023/08/07 01:42:25;;;;;;;;;;;;;;;23.73;59.54;99990.56;7401577;19;1118;-46
2023/08/07 01:44:53;;;;;;;;;;;;;;;23.68;59.62;99999.22;7401620;19;1019;-46
2023/08/07 01:47:22;;;;;;;;;;;;;;;23.69;59.89;100000.88;7400876;19;1613;-47
2023/08/07 01:49:50;;;;;;;;;;;;;;;23.70;59.84;99997.19;7401100;19;1456;-47
2023/08/07 01:52:18;;;;;;;;;;;;;;;23.69;60.14;99994.66;7401699;19;1824;-47
2023/08/07 01:54:49;;;;;;;;;;;;;;;23.64;59.30;99997.94;7399642;19;1427;-46
2023/08/07 01:57:17;;;;;;;;;;;;;;;23.57;59.64;99992.41;7400989;19;1839;-46
2023/08/07 01:59:46;;;;;;;;;;;;;;;23.55;60.20;99997.16;7401283;19;1015;-46
2023/08/07 02:02:14;;;;;;;;;;;;;;;23.63;60.14;99991.69;7400311;19;1529;-46
2023/08/07 02:04:43;;;;;;;;;;;;;;;23.68;60.41;99999.22;7398944;19;1529;-46
2023/08/07 02:07:11;;;;;;;;;;;;;;;23.75;60.32;100008.25;7399213;19;1434;-46
2023/08/07 02:09:39;;;;;;;;;;;;;;;23.87;60.45;99999.72;7399892;19;1755;-46
2023/08/07 02:12:11;;;;;;;;;;;;;;;23.75;60.79;100005.53;7396451;19;2435;-46
2023/08/07 02:14:39;;;;;;;;;;;;;;;23.82;60.73;100016.50;7398614;19;1249;-46
2023/08/07 02:17:07;;;;;;;;;;;;;;;23.83;60.56;100007.34;7398519;19;1844;-46
2023/08/07 02:19:36;;;;;;;;;;;;;;;23.82;60.76;100011.94;7398522;19;1284;-46
2023/08/07 02:22:04;;;;;;;;;;;;;;;23.88;60.58;99998.72;7398357;19;1316;-46
2023/08/07 02:24:32;;;;;;;;;;;;;;;23.87;60.82;99997.03;7398700;19;1113;-46
2023/08/07 02:27:01;;;;;;;;;;;;;;;23.92;60.76;99994.63;7398702;19;1488;-47
2023/08/07 02:29:34;;;;;;;;;;;;;;;23.91;60.89;99995.63;7397977;19;1111;-47
2023/08/07 02:32:02;;;;;;;;;;;;;;;23.79;60.21;100004.19;7397670;19;1231;-45
2023/08/07 02:34:30;;;;;;;;;;;;;;;23.72;60.45;100016.72;7398625;19;1319;-46
2023/08/07 02:36:59;;;;;;;;;;;;;;;23.69;61.08;100027.88;7397942;19;1162;-46
2023/08/07 02:39:27;;;;;;;;;;;;;;;23.74;61.11;100035.44;7396257;19;1873;-46
2023/08/07 02:41:55;;;;;;;;;;;;;;;23.86;61.27;100033.16;7400236;19;966;-46
2023/08/07 02:44:24;;;;;;;;;;;;;;;23.86;61.18;100035.88;7398534;19;1810;-46
2023/08/07 02:46:55;;;;;;;;;;;;;;;23.91;61.20;100033.44;7397990;19;1837;-46
2023/08/07 02:49:23;;;;;;;;;;;;;;;23.90;61.07;100051.50;7397822;19;1937;-47
2023/08/07 02:51:51;;;;;;;;;;;;;;;23.85;61.44;100048.50;7399241;19;959;-46
2023/08/07 02:54:19;;;;;;;;;;;;;;;23.78;61.59;100037.63;7398796;19;1794;-46
2023/08/07 02:56:48;;;;;;;;;;;;;;;23.81;61.54;100055.31;7398543;19;1877;-46
2023/08/07 02:59:16;;;;;;;;;;;;;;;23.90;61.38;100046.09;7396929;19;1869;-46
2023/08/07 03:01:46;;;;;;;;;;;;;;;23.74;61.60;100057.03;7398376;19;1395;-46
2023/08/07 03:04:17;;;;;;;;;;;;;;;23.87;61.36;100064.53;7398449;19;1739;-47
2023/08/07 03:06:45;;;;;;;;;;;;;;;23.80;61.71;100059.88;7394989;19;1466;-45
2023/08/07 03:09:13;;;;;;;;;;;;;;;23.71;61.06;100065.50;7396871;19;1154;-46
2023/08/07 03:11:41;;;;;;;;;;;;;;;23.63;60.93;100085.31;7397373;19;1501;-46
2023/08/07 03:14:10;;;;;;;;;;;;;;;23.60;61.61;100088.38;7397253;19;1556;-46
2023/08/07 03:16:38;;;;;;;;;;;;;;;23.67;61.89;100091.19;7396534;19;1631;-46
2023/08/07 03:19:06;;;;;;;;;;;;;;;23.78;61.87;100097.00;7394990;19;1849;-45
2023/08/07 03:21:38;;;;;;;;;;;;;;;23.78;61.97;100098.88;7397372;19;1055;-46
2023/08/07 03:24:06;;;;;;;;;;;;;;;23.82;61.70;100097.50;7397746;19;1928;-46
2023/08/07 03:26:35;;;;;;;;;;;;;;;23.85;61.78;100082.78;7397509;19;1469;-45
2023/08/07 03:29:03;;;;;;;;;;;;;;;23.85;61.79;100107.06;7396665;19;1386;-46
2023/08/07 03:31:31;;;;;;;;;;;;;;;23.82;62.00;100090.22;7396803;19;1461;-45
2023/08/07 03:33:59;;;;;;;;;;;;;;;23.79;61.82;100098.69;7396305;19;1119;-46
2023/08/07 03:36:31;;;;;;;;;;;;;;;23.85;61.88;100107.06;7394557;19;1356;-46
2023/08/07 03:39:02;;;;;;;;;;;;;;;23.82;61.71;100101.03;7395911;19;1955;-46
2023/08/07 03:41:31;;;;;;;;;;;;;;;23.73;62.15;100102.06;7394729;19;1581;-46
2023/08/07 03:43:59;;;;;;;;;;;;;;;23.84;62.09;100113.50;7395712;19;1537;-46
2023/08/07 03:46:27;;;;;;;;;;;;;;;23.71;61.06;100098.72;7396359;19;1366;-47
2023/08/07 03:48:56;;;;;;;;;;;;;;;23.60;61.30;100099.19;7395854;19;1388;-46
2023/08/07 03:51:24;;;;;;;;;;;;;;;23.61;61.88;100096.28;7397467;19;952;-46
2023/08/07 03:53:52;;;;;;;;;;;;;;;23.65;62.26;100096.75;7394818;19;1939;-47
2023/08/07 03:56:23;;;;;;;;;;;;;;;23.75;62.36;100108.13;7394779;19;1082;-50
2023/08/07 03:58:52;;;;;;;;;;;;;;;23.81;62.04;100101.19;7394216;19;1853;-46
2023/08/07 04:01:20;;;;;;;;;;;;;;;23.77;62.29;100095.31;7395163;19;1284;-46
2023/08/07 04:03:49;;;;;;;;;;;;;;;23.81;62.13;100091.25;7396343;19;1707;-46
2023/08/07 04:06:18;;;;;;;;;;;;;;;23.87;61.97;100115.84;7395911;19;1860;-47
2023/08/07 04:08:47;;;;;;;;;;;;;;;23.91;61.88;100117.13;7395332;19;1762;-46
2023/08/07 04:11:16;;;;;;;;;;;;;;;23.92;62.05;100113.44;7396528;19;1411;-46
2023/08/07 04:13:46;;;;;;;;;;;;;;;23.89;62.13;100105.69;7397041;19;1110;-46
2023/08/07 04:16:15;;;;;;;;;;;;;;;23.94;61.96;100106.81;7396876;19;1097;-46
2023/08/07 04:18:43;;;;;;;;;;;;;;;23.99;61.80;100099.00;7401442;19;1853;-46
2023/08/07 04:21:12;;;;;;;;;;;;;;;24.05;61.54;100108.22;7403144;19;1501;-46
2023/08/07 04:23:40;;;;;;;;;;;;;;;23.98;60.77;100097.31;7401824;19;1538;-46
2023/08/07 04:26:08;;;;;;;;;;;;;;;23.90;61.01;100093.88;7403394;19;1378;-47
2023/08/07 04:28:37;;;;;;;;;;;;;;;23.93;61.18;100088.09;7403692;19;1987;-46
2023/08/07 04:31:08;;;;;;;;;;;;;;;23.88;61.73;100094.06;7403760;19;1161;-47
2023/08/07 04:33:36;;;;;;;;;;;;;;;24.02;61.62;100100.50;7399449;19;1910;-46
2023/08/07 04:36:04;;;;;;;;;;;;;;;24.10;61.48;100108.50;7402647;19;1577;-46
2023/08/07 04:38:33;;;;;;;;;;;;;;;24.08;61.72;100113.25;7400449;19;1860;-47
2023/08/07 04:41:01;;;;;;;;;;;;;;;24.13;61.54;100110.84;7402168;19;1556;-46
2023/08/07 04:43:30;;;;;;;;;;;;;;;24.22;61.38;100108.88;7401964;19;1426;-46
2023/08/07 04:45:58;;;;;;;;;;;;;;;24.27;61.15;100108.31;7401845;19;1213;-46
2023/08/07 04:48:29;;;;;;;;;;;;;;;24.32;61.07;100120.25;7400656;19;1721;-47
2023/08/07 04:50:59;;;;;;;;;;;;;;;24.49;60.63;100102.00;7401651;19;913;-47
2023/08/07 04:53:27;;;;;;;;;;;;;;;24.53;60.75;100106.03;7401115;19;1856;-46
2023/08/07 04:55:55;;;;;;;;;;;;;;;24.44;60.61;100117.91;7401653;19;1435;-46
2023/08/07 04:58:23;;;;;;;;;;;;;;;24.51;60.77;100109.91;7400147;19;1840;-47
2023/08/07 05:00:57;;;;;;;;;;;;;;;24.43;60.08;100105.41;7400600;19;1798;-47
2023/08/07 05:03:26;;;;;;;;;;;;;;;24.25;60.23;100107.66;7402711;19;1766;-46
2023/08/07 05:06:03;;;;;;;;;;;;;;;24.16;60.92;100126.69;7401623;19;1918;-46
2023/08/07 05:08:31;;;;;;;;;;;;;;;24.26;61.34;100139.09;7401969;19;1670;-46
2023/08/07 05:11:00;;;;;;;;;;;;;;;24.20;61.57;100138.78;7401524;19;1735;-46
2023/08/07 05:13:28;;;;;;;;;;;;;;;24.25;61.63;100134.69;7401324;19;1486;-47
2023/08/07 05:15:56;;;;;;;;;;;;;;;24.27;61.52;100138.03;7402309;19;1122;-47
2023/08/07 05:18:24;;;;;;;;;;;;;;;24.25;61.77;100145.50;7401908;19;1866;-47
2023/08/07 05:20:53;;;;;;;;;;;;;;;24.28;61.57;100145.13;7398816;19;1526;-47
2023/08/07 05:23:24;;;;;;;;;;;;;;;24.32;61.61;100136.47;7400171;19;1856;-46
2023/08/07 05:25:52;;;;;;;;;;;;;;;24.24;61.66;100135.72;7400937;19;1007;-46
2023/08/07 05:28:20;;;;;;;;;;;;;;;24.24;61.78;100138.44;7399716;19;1822;-46
2023/08/07 05:30:48;;;;;;;;;;;;;;;24.29;61.71;100150.38;7400834;19;1557;-46
2023/08/07 05:33:17;;;;;;;;;;;;;;;24.21;61.77;100155.81;7399287;19;2290;-46
2023/08/07 05:35:45;;;;;;;;;;;;;;;24.31;61.82;100155.56;7401496;19;1730;-46
2023/08/07 05:38:14;;;;;;;;;;;;;;;24.16;61.29;100142.88;7400526;19;1722;-46
2023/08/07 05:40:44;;;;;;;;;;;;;;;24.07;60.91;100149.38;7400106;19;1331;-46
2023/08/07 05:43:13;;;;;;;;;;;;;;;24.06;61.71;100147.72;7400082;19;1386;-46
2023/08/07 05:45:42;;;;;;;;;;;;;;;24.10;61.97;100151.72;7399070;19;1466;-46
2023/08/07 05:48:10;;;;;;;;;;;;;;;24.18;61.97;100154.34;7399135;19;1234;-47
2023/08/07 05:50:39;;;;;;;;;;;;;;;24.16;62.24;100148.28;7399936;19;1627;-46
2023/08/07 05:53:07;;;;;;;;;;;;;;;24.17;62.28;100159.91;7398765;19;1208;-46
2023/08/07 05:55:35;;;;;;;;;;;;;;;24.20;62.15;100167.69;7399354;19;1919;-46
2023/08/07 05:58:06;;;;;;;;;;;;;;;24.21;62.31;100177.44;7399358;19;1560;-46
2023/08/07 06:00:35;;;;;;;;;;;;;;;24.16;62.42;100171.78;7397661;19;1884;-46
2023/08/07 06:03:03;;;;;;;;;;;;;;;24.13;62.28;100174.81;7399307;19;1635;-46
2023/08/07 06:05:31;;;;;;;;;;;;;;;24.21;62.14;100183.72;7399057;19;1473;-46
2023/08/07 06:07:59;;;;;;;;;;;;;;;24.24;62.17;100178.97;7399376;19;1467;-46
2023/08/07 06:10:28;;;;;;;;;;;;;;;24.19;62.41;100187.59;7400045;19;1384;-46
2023/08/07 06:12:56;;;;;;;;;;;;;;;24.17;62.16;100170.72;7400104;19;1741;-46
2023/08/07 06:15:27;;;;;;;;;;;;;;;24.28;61.46;100182.97;7399681;19;1829;-47
2023/08/07 06:17:55;;;;;;;;;;;;;;;24.12;61.58;100163.19;7397687;19;1414;-46
2023/08/07 06:20:24;;;;;;;;;;;;;;;24.07;62.14;100159.34;7396936;19;1855;-46
2023/08/07 06:22:52;;;;;;;;;;;;;;;24.18;62.53;100162.44;7398877;19;1004;-46
2023/08/07 06:25:20;;;;;;;;;;;;;;;24.17;62.33;100159.91;7399390;19;1462;-46
2023/08/07 06:27:49;;;;;;;;;;;;;;;24.17;62.53;100165.31;7398783;19;1615;-46
2023/08/07 06:30:17;;;;;;;;;;;;;;;24.29;62.30;100154.91;7398369;19;1901;-46
2023/08/07 06:32:48;;;;;;;;;;;;;;;24.16;62.71;100167.19;7397858;19;1691;-46
2023/08/07 06:35:16;;;;;;;;;;;;;;;24.20;62.58;100163.09;7398820;19;1374;-46
2023/08/07 06:37:45;;;;;;;;;;;;;;;24.34;62.17;100174.13;7398692;19;1289;-46
2023/08/07 06:40:13;;;;;;;;;;;;;;;24.29;62.42;100171.13;7394358;19;1887;-47
2023/08/07 06:42:42;;;;;;;;;;;;;;;24.16;62.73;100190.69;7396442;19;1628;-46
2023/08/07 06:45:10;;;;;;;;;;;;;;;24.31;62.38;100185.28;7398369;19;1362;-47
2023/08/07 06:47:39;;;;;;;;;;;;;;;24.32;62.36;100184.28;7398874;19;1351;-46
2023/08/07 06:50:10;;;;;;;;;;;;;;;24.24;62.38;100197.88;7397751;19;1727;-46
2023/08/07 06:52:38;;;;;;;;;;;;;;;24.30;61.64;100200.66;7399234;19;1451;-46
2023/08/07 06:55:07;;;;;;;;;;;;;;;24.17;61.64;100195.91;7399006;19;1303;-46
2023/08/07 06:57:36;;;;;;;;;;;;;;;24.12;62.31;100206.41;7397568;19;1932;-46
2023/08/07 07:00:05;;;;;;;;;;;;;;;24.16;62.73;100191.50;7396590;19;1857;-46
2023/08/07 07:02:33;;;;;;;;;;;;;;;24.20;62.88;100202.78;7397604;19;1896;-46
2023/08/07 07:05:01;;;;;;;;;;;;;;;24.20;62.74;100203.63;7396494;19;1425;-46
2023/08/07 07:07:32;;;;;;;;;;;;;;;24.21;63.02;100205.31;7396267;19;1672;-46
2023/08/07 07:10:00;;;;;;;;;;;;;;;24.21;62.43;100204.47;7396063;19;1291;-46
2023/08/07 07:12:29;;;;;;;;;;;;;;;24.22;62.04;100209.69;7396645;19;1177;-46
2023/08/07 07:14:57;;;;;;;;;;;;;;;24.15;62.12;100207.91;7395782;19;1410;-46
2023/08/07 07:17:25;;;;;;;;;;;;;;;24.09;62.19;100206.75;7395477;19;1735;-46
2023/08/07 07:19:53;;;;;;;;;;;;;;;24.10;61.91;100221.97;7396645;19;1857;-46
2023/08/07 07:22:22;;;;;;;;;;;;;;;24.09;61.80;100216.72;7398034;19;1010;-47
2023/08/07 07:24:53;;;;;;;;;;;;;;;24.02;61.69;100216.63;7396891;19;1420;-47
2023/08/07 07:27:22;;;;;;;;;;;;;;;24.09;61.40;100214.88;7397189;19;1680;-46
2023/08/07 07:29:50;;;;;;;;;;;;;;;24.03;61.40;100207.50;7395709;19;1706;-46
2023/08/07 07:32:18;;;;;;;;;;;;;;;24.02;61.32;100216.63;7395627;19;1379;-45
2023/08/07 07:34:46;;;;;;;;;;;;;;;24.01;61.40;100204.13;7397496;19;1359;-46
2023/08/07 07:37:16;;;;;;;;;;;;;;;24.05;61.12;100216.25;7396649;19;1458;-46
2023/08/07 07:39:45;;;;;;;;;;;;;;;24.07;60.80;100216.06;7396184;19;1851;-46
2023/08/07 07:42:15;;;;;;;;;;;;;;;24.07;60.73;100208.81;7397182;19;1668;-46
2023/08/07 07:44:44;;;;;;;;;;;;;;;24.07;60.75;100210.69;7396509;19;1492;-46
2023/08/07 07:47:12;;;;;;;;;;;;;;;24.05;60.65;100204.63;7396522;19;1125;-46
2023/08/07 07:49:40;;;;;;;;;;;;;;;24.05;60.85;100216.25;7396066;19;1200;-46
2023/08/07 07:52:09;;;;;;;;;;;;;;;24.04;60.61;100217.28;7395246;19;1612;-45
2023/08/07 07:54:37;;;;;;;;;;;;;;;24.04;60.67;100236.19;7405383;19;1272;-46
2023/08/07 07:57:06;;;;;;;;;;;;;;;24.06;60.44;100227.91;7402078;19;1952;-45
2023/08/07 07:59:37;;;;;;;;;;;;;;;24.02;60.55;100227.44;7401049;19;1857;-46
2023/08/07 08:02:06;;;;;;;;;;;;;;;24.05;60.38;100227.06;7404499;19;1794;-46
2023/08/07 08:04:35;;;;;;;;;;;;;;;24.06;60.32;100233.31;7403791;19;1796;-46
2023/08/07 08:07:03;;;;;;;;;;;;;;;24.02;60.23;100224.75;7404508;19;1012;-46
2023/08/07 08:09:32;;;;;;;;;;;;;;;23.96;60.43;100220.06;7403847;19;1935;-46
2023/08/07 08:12:00;;;;;;;;;;;;;;;24.01;60.28;100241.94;7403231;19;1830;-46
2023/08/07 08:14:28;;;;;;;;;;;;;;;24.01;60.49;100245.50;7403275;19;1406;-46
2023/08/07 08:16:59;;;;;;;;;;;;;;;23.97;60.25;100219.88;7403084;19;1450;-46
2023/08/07 08:19:27;;;;;;;;;;;;;;;24.05;60.00;100224.34;7401372;19;1842;-46
2023/08/07 08:21:55;;;;;;;;;;;;;;;23.93;60.36;100234.75;7403985;19;1261;-46
2023/08/07 08:24:24;;;;;;;;;;;;;;;24.04;59.92;100225.41;7402791;19;1538;-46
2023/08/07 08:26:52;;;;;;;;;;;;;;;24.02;60.13;100232.84;7402156;19;1560;-46
2023/08/07 08:29:20;;;;;;;;;;;;;;;23.94;60.30;100232.91;7401190;19;1197;-46
2023/08/07 08:31:49;;;;;;;;;;;;;;;23.92;60.27;100243.88;7402935;19;1618;-46
2023/08/07 08:34:21;;;;;;;;;;;;;;;23.99;60.11;100241.28;7400023;19;1603;-46
2023/08/07 08:36:49;;;;;;;;;;;;;;;23.97;60.07;100237.94;7403212;19;1539;-46
2023/08/07 08:39:18;;;;;;;;;;;;;;;23.92;60.07;100218.75;7403334;19;1852;-47
2023/08/07 08:41:48;;;;;;;;;;;;;;;23.96;60.26;100223.59;7401865;19;1256;-46
2023/08/07 08:44:17;;;;;;;;;;;;;;;23.94;59.95;100219.41;7402004;19;1552;-46
2023/08/07 08:46:45;;;;;;;;;;;;;;;23.96;60.06;100222.75;7402546;19;1162;-46
2023/08/07 08:49:14;;;;;;;;;;;;;;;24.03;60.06;100229.09;7402060;19;1233;-46
2023/08/07 08:51:45;;;;;;;;;;;;;;;23.97;59.91;100221.72;7402863;19;1034;-46
2023/08/07 08:54:14;;;;;;;;;;;;;;;23.98;60.13;100228.81;7401665;19;1576;-47
2023/08/07 08:56:43;;;;;;;;;;;;;;;23.87;60.08;100210.34;7401670;19;1559;-46
2023/08/07 08:59:11;;;;;;;;;;;;;;;23.85;60.42;100210.50;7401761;19;1525;-46
2023/08/07 09:01:40;;;;;;;;;;;;;;;23.89;60.06;100202.91;7398602;19;2007;-46
2023/08/07 09:04:09;;;;;;;;;;;;;;;23.86;60.26;100219.47;7399240;19;1506;-47
2023/08/07 09:06:38;;;;;;;;;;;;;;;23.80;60.14;100218.34;7401238;19;1186;-46
2023/08/07 09:09:10;;;;;;;;;;;;;;;23.82;60.45;100227.94;7400792;19;1380;-46
2023/08/07 09:11:38;;;;;;;;;;;;;;;23.89;60.38;100216.41;7400070;19;1398;-46
2023/08/07 09:14:09;;;;;;;;;;;;;;;23.86;60.48;100222.19;7402197;19;1703;-47
2023/08/07 09:16:38;;;;;;;;;;;;;;;23.80;60.40;100208.38;7401491;19;1437;-46
2023/08/07 09:19:06;;;;;;;;;;;;;;;23.86;60.48;100222.19;7401001;19;1360;-46
2023/08/07 09:21:32;;;;;;;;;;;;;;;23.95;60.35;100207.56;7399875;19;1841;-46
2023/08/07 09:24:00;;;;;;;;;;;;;;;23.94;60.27;100203.22;7399370;19;1474;-47
2023/08/07 09:26:31;;;;;;;;;;;;;;;23.92;60.09;100213.34;7401846;19;1418;-46
2023/08/07 09:29:00;;;;;;;;;;;;;;;23.90;60.13;100221.63;7400760;19;1754;-46
2023/08/07 09:31:30;;;;;;;;;;;;;;;23.88;60.08;100215.56;7400293;19;1383;-47
2023/08/07 09:34:04;;;;;;;;;;;;;;;23.85;60.54;100225.88;7398789;19;1496;-46
2023/08/07 09:36:32;;;;;;;;;;;;;;;23.90;60.13;100237.81;7400540;19;1791;-46
2023/08/07 09:39:03;;;;;;;;;;;;;;;23.88;60.53;100226.38;7401428;19;1031;-46
2023/08/07 09:41:35;;;;;;;;;;;;;;;23.80;60.64;100227.25;7398049;19;1857;-46
2023/08/07 09:44:09;;;;;;;;;;;;;;;23.81;60.51;100226.25;7399843;19;1560;-46
2023/08/07 09:46:43;;;;;;;;;;;;;;;23.79;60.73;100222.88;7399920;19;1560;-46
2023/08/07 09:49:12;;;;;;;;;;;;;;;23.87;60.36;100242.75;7399491;19;1611;-46
2023/08/07 09:51:50;;;;;;;;;;;;;;;23.83;60.39;100231.47;7399705;19;1489;-47
2023/08/07 09:54:18;;;;;;;;;;;;;;;23.79;60.72;100213.94;7401071;19;1545;-46
2023/08/07 09:56:49;;;;;;;;;;;;;;;23.83;60.66;100223.34;7400645;19;1686;-46
2023/08/07 09:59:19;;;;;;;;;;;;;;;23.89;60.44;100240.69;7400047;19;1489;-46
2023/08/07 10:01:47;;;;;;;;;;;;;;;23.91;60.43;100238.66;7397978;19;1835;-46
2023/08/07 10:04:16;;;;;;;;;;;;;;;23.88;60.52;100230.94;7400133;19;1679;-46
2023/08/07 10:06:44;;;;;;;;;;;;;;;23.87;60.65;100229.25;7400552;19;1707;-47
2023/08/07 10:09:13;;;;;;;;;;;;;;;23.88;60.38;100241.75;7400411;19;1040;-46
2023/08/07 10:11:41;;;;;;;;;;;;;;;23.81;60.76;100228.97;7399694;19;1992;-46
2023/08/07 10:14:13;;;;;;;;;;;;;;;23.80;60.79;100227.25;7400158;19;1447;-46
2023/08/07 10:16:42;;;;;;;;;;;;;;;23.85;60.96;100236.69;7399192;19;1821;-46
2023/08/07 10:19:11;;;;;;;;;;;;;;;23.88;60.88;100241.75;7398529;19;1404;-46
2023/08/07 10:21:41;;;;;;;;;;;;;;;23.88;60.78;100222.84;7397681;19;1848;-46
2023/08/07 10:24:10;;;;;;;;;;;;;;;23.90;60.91;100235.13;7398779;19;1728;-46
2023/08/07 10:26:41;;;;;;;;;;;;;;;23.89;60.71;100224.50;7398027;19;1279;-46
2023/08/07 10:29:13;;;;;;;;;;;;;;;23.88;60.76;100217.44;7398570;19;1213;-46
2023/08/07 10:31:43;;;;;;;;;;;;;;;23.89;61.01;100221.81;7397946;19;1197;-45
2023/08/07 10:34:11;;;;;;;;;;;;;;;23.89;60.67;100224.50;7395194;19;1310;-47
2023/08/07 10:36:41;;;;;;;;;;;;;;;23.91;60.51;100220.59;7398345;19;1476;-46
2023/08/07 10:39:10;;;;;;;;;;;;;;;23.94;60.94;100225.63;7399765;19;1190;-47
2023/08/07 10:41:42;;;;;;;;;;;;;;;23.89;61.05;100225.34;7397585;19;1855;-46
2023/08/07 10:44:22;;;;;;;;;;;;;;;23.84;61.03;100222.34;7398125;19;1928;-46
2023/08/07 10:46:51;;;;;;;;;;;;;;;23.85;61.18;100205.13;7397529;19;1961;-47
2023/08/07 10:49:34;;;;;;;;;;;;;;;23.87;61.12;100226.53;7397410;19;1810;-46
2023/08/07 10:52:04;;;;;;;;;;;;;;;23.86;60.96;100219.47;7397403;19;1493;-46
2023/08/07 10:54:32;;;;;;;;;;;;;;;23.89;61.06;100211.81;7397199;19;1544;-46
2023/08/07 10:57:02;;;;;;;;;;;;;;;23.88;61.07;100229.06;7397778;19;1559;-46
2023/08/07 10:59:33;;;;;;;;;;;;;;;23.86;61.27;100208.69;7397218;19;1567;-45
2023/08/07 11:02:01;;;;;;;;;;;;;;;23.88;61.25;100198.53;7396069;19;1839;-47
2023/08/07 11:04:30;;;;;;;;;;;;;;;23.79;61.26;100201.28;7396999;19;1600;-45
2023/08/07 11:06:58;;;;;;;;;;;;;;;23.84;61.11;100208.84;7397510;19;1253;-46
2023/08/07 11:09:26;;;;;;;;;;;;;;;23.75;61.48;100204.50;7396768;19;1312;-46
2023/08/07 11:11:55;;;;;;;;;;;;;;;23.82;61.05;100183.91;7396317;19;1161;-46
2023/08/07 11:14:23;;;;;;;;;;;;;;;23.78;61.42;100194.22;7397064;19;1444;-46
2023/08/07 11:16:55;;;;;;;;;;;;;;;23.85;61.16;100196.19;7396463;19;1264;-47
2023/08/07 11:19:23;;;;;;;;;;;;;;;23.88;61.53;100187.72;7396666;19;1589;-46
2023/08/07 11:21:51;;;;;;;;;;;;;;;23.91;61.44;100198.16;7394840;19;1855;-47
2023/08/07 11:24:21;;;;;;;;;;;;;;;23.86;61.79;100187.06;7396406;19;1478;-47
2023/08/07 11:26:50;;;;;;;;;;;;;;;23.60;62.33;100174.75;7395319;19;1647;-47
2023/08/07 11:29:19;;;;;;;;;;;;;;;23.48;62.83;100187.00;7396467;19;1553;-47
2023/08/07 11:31:47;;;;;;;;;;;;;;;23.48;61.83;100178.91;7395812;19;1555;-47
2023/08/07 11:34:19;;;;;;;;;;;;;;;23.43;61.28;100182.94;7394353;19;1269;-47
2023/08/07 11:36:48;;;;;;;;;;;;;;;23.28;61.18;100149.69;7395394;19;1153;-47
2023/08/07 11:39:17;;;;;;;;;;;;;;;23.46;61.34;100172.81;7397010;19;1103;-47
2023/08/07 11:41:46;;;;;;;;;;;;;;;23.54;61.74;100175.47;7396459;19;1845;-48
2023/08/07 11:44:15;;;;;;;;;;;;;;;23.40;62.66;100177.09;7395709;19;1190;-47
2023/08/07 11:46:43;;;;;;;;;;;;;;;23.52;62.59;100174.81;7395028;19;1567;-49
2023/08/07 11:49:12;;;;;;;;;;;;;;;23.70;62.61;100175.34;7392384;19;1787;-49
2023/08/07 11:51:42;;;;;;;;;;;;;;;23.61;62.94;100182.66;7394524;19;1075;-49
2023/08/07 11:54:16;;;;;;;;;;;;;;;23.70;62.89;100174.50;7395809;19;1627;-49
2023/08/07 11:56:45;;;;;;;;;;;;;;;23.54;63.51;100179.00;7395738;19;1465;-49
2023/08/07 11:59:13;;;;;;;;;;;;;;;23.52;62.71;100166.72;7396134;19;1568;-49
2023/08/07 12:01:42;;;;;;;;;;;;;;;23.63;62.40;100179.78;7393396;19;1845;-48
2023/08/07 12:04:11;;;;;;;;;;;;;;;23.59;61.78;100178.47;7395124;19;1556;-48
2023/08/07 12:06:43;;;;;;;;;;;;;;;23.41;62.16;100170.66;7396106;19;1567;-49
2023/08/07 12:09:14;;;;;;;;;;;;;;;23.47;61.58;100167.25;7396282;19;1075;-48
2023/08/07 12:11:43;;;;;;;;;;;;;;;23.52;60.93;100169.44;7396296;19;1928;-48
2023/08/07 12:14:16;;;;;;;;;;;;;;;23.49;60.69;100167.91;7394126;19;2044;-48
2023/08/07 12:16:46;;;;;;;;;;;;;;;23.54;59.99;100170.91;7394865;19;1533;-47
2023/08/07 12:19:14;;;;;;;;;;;;;;;23.45;59.99;100171.16;7394742;19;1892;-48
2023/08/07 12:21:43;;;;;;;;;;;;;;;23.55;59.77;100166.34;7395260;19;1845;-49
2023/08/07 12:24:15;;;;;;;;;;;;;;;23.53;60.47;100163.81;7394700;19;1939;-48
2023/08/07 12:26:43;;;;;;;;;;;;;;;23.47;60.77;100163.72;7394489;19;2014;-49
2023/08/07 12:29:12;;;;;;;;;;;;;;;23.49;61.05;100151.72;7393297;19;1284;-48
2023/08/07 12:31:40;;;;;;;;;;;;;;;23.47;62.35;100145.66;7395114;19;1194;-46
2023/08/07 12:34:10;;;;;;;;;;;;;;;23.58;63.65;100163.31;7391666;19;1553;-48
2023/08/07 12:36:38;;;;;;;;;;;;;;;23.55;64.32;100166.34;7394811;19;1682;-48
2023/08/07 12:39:07;;;;;;;;;;;;;;;23.58;64.17;100168.69;7399427;19;1627;-48
2023/08/07 12:41:37;;;;;;;;;;;;;;;23.49;64.52;100156.28;7399917;19;1862;-48
2023/08/07 12:44:06;;;;;;;;;;;;;;;23.57;64.18;100165.13;7401620;19;1810;-48
2023/08/07 12:46:36;;;;;;;;;;;;;;;23.60;64.00;100163.97;7401003;19;1656;-48
2023/08/07 12:49:04;;;;;;;;;;;;;;;23.52;64.07;100169.44;7399021;19;1162;-48
2023/08/07 12:51:33;;;;;;;;;;;;;;;23.60;63.19;100174.75;7401325;19;1187;-48
2023/08/07 12:54:01;;;;;;;;;;;;;;;23.58;63.00;100171.41;7397599;19;1621;-49
2023/08/07 12:56:29;;;;;;;;;;;;;;;23.47;62.67;100171.81;7397702;19;1461;-48